createdAt,value
2019-06-07T00:02:51.566Z,22.13
2019-06-07T00:07:47.493Z,24.23
2019-06-07T00:12:43.411Z,18.73
2019-06-07T00:17:39.335Z,18.10
2019-06-07T00:22:35.244Z,21.47
2019-06-07T00:27:31.166Z,20.63
2019-06-07T00:32:27.110Z,20.20
2019-06-07T00:37:25.304Z,22.50
2019-06-07T00:42:23.737Z,21.97
2019-06-07T00:47:23.029Z,21.50
2019-06-07T00:53:07.641Z,24.80
2019-06-07T00:57:16.669Z,18.90
2019-06-07T01:02:14.605Z,18.30
2019-06-07T01:07:10.213Z,24.50
2019-06-07T01:12:06.131Z,18.50
2019-06-07T01:17:27.979Z,20.40
2019-06-07T01:22:16.440Z,20.80
2019-06-07T01:27:13.224Z,17.80
2019-06-07T01:32:09.148Z,17.70
2019-06-07T01:37:05.064Z,17.97
2019-06-07T01:42:01.031Z,26.03
2019-06-07T01:46:56.950Z,21.20
2019-06-07T01:51:53.830Z,23.23
2019-06-07T01:56:49.757Z,22.60
2019-06-07T02:01:45.674Z,25.67
2019-06-07T02:06:41.695Z,24.00
2019-06-07T02:11:37.657Z,21.70
2019-06-07T02:16:33.571Z,19.23
2019-06-07T02:21:33.442Z,16.70
2019-06-07T02:26:30.790Z,20.97
2019-06-07T02:31:27.796Z,18.03
2019-06-07T02:36:28.842Z,16.37
2019-06-07T02:41:25.774Z,21.20
2019-06-07T02:46:30.438Z,24.57
2019-06-07T02:51:23.687Z,17.37
2019-06-07T02:56:46.439Z,18.70
2019-06-07T03:01:17.597Z,21.80
2019-06-07T03:06:14.111Z,19.13
2019-06-07T03:11:11.217Z,17.10
2019-06-07T03:16:09.254Z,24.00
2019-06-07T03:21:07.568Z,31.33
2019-06-07T03:26:03.834Z,24.53
2019-06-07T03:31:02.594Z,18.10
2019-06-07T03:35:57.701Z,24.50
2019-06-07T03:40:53.676Z,22.87
2019-06-07T03:45:49.596Z,18.50
2019-06-07T03:50:45.572Z,20.97
2019-06-07T03:55:41.613Z,20.97
2019-06-07T04:00:42.715Z,24.30
2019-06-07T04:05:40.250Z,16.63
2019-06-07T04:10:53.417Z,20.70
2019-06-07T04:15:33.825Z,15.80
2019-06-07T04:20:32.527Z,20.43
2019-06-07T04:25:29.061Z,24.50
2019-06-07T04:30:43.711Z,17.73
2019-06-07T04:35:42.917Z,29.13
2019-06-07T04:40:42.545Z,23.70
2019-06-07T04:45:45.769Z,22.00
2019-06-07T04:50:40.439Z,29.43
2019-06-07T04:55:36.616Z,22.17
2019-06-07T05:00:49.827Z,19.30
2019-06-07T05:05:34.460Z,19.63
2019-06-07T05:10:35.702Z,19.13
2019-06-07T05:15:29.580Z,19.67
2019-06-07T05:20:25.517Z,21.40
2019-06-07T05:25:21.472Z,11.23
2019-06-07T05:35:30.699Z,9.43
2019-06-07T05:40:33.021Z,8.93
2019-06-07T05:45:38.142Z,11.20
2019-06-07T05:50:43.964Z,11.03
2019-06-07T05:55:30.787Z,17.43
2019-06-07T06:00:26.798Z,9.30
2019-06-07T06:05:33.205Z,8.40
2019-06-07T06:10:20.535Z,9.83
2019-06-07T06:15:16.748Z,9.83
2019-06-07T06:20:13.983Z,13.00
2019-06-07T06:25:31.760Z,9.70
2019-06-07T06:30:09.766Z,9.17
2019-06-07T06:35:06.591Z,25.20
2019-06-07T06:40:04.506Z,11.00
2019-06-07T06:45:00.424Z,13.70
2019-06-07T06:49:56.345Z,13.97
2019-06-07T06:55:00.071Z,14.60
2019-06-07T06:59:52.542Z,18.00
2019-06-07T07:04:48.762Z,14.87
2019-06-07T07:09:51.086Z,12.80
2019-06-07T07:14:47.038Z,16.03
2019-06-07T07:19:46.569Z,16.10
2019-06-07T07:24:40.263Z,14.33
2019-06-07T07:29:36.175Z,14.37
2019-06-07T07:34:36.647Z,13.43
2019-06-07T07:39:30.585Z,18.37
2019-06-07T07:44:26.572Z,9.30
2019-06-07T07:49:22.488Z,7.23
2019-06-07T07:54:18.404Z,7.47
2019-06-07T07:59:14.326Z,10.07
2019-06-07T08:04:10.245Z,6.80
2019-06-07T08:09:09.482Z,11.00
2019-06-07T08:14:05.383Z,11.67
2019-06-07T08:19:04.193Z,7.33
2019-06-07T08:24:03.575Z,9.37
2019-06-07T08:28:59.746Z,9.33
2019-06-07T08:33:57.037Z,9.33
2019-06-07T08:39:07.307Z,13.77
2019-06-07T08:44:00.724Z,10.40
2019-06-07T08:49:01.410Z,11.43
2019-06-07T08:54:20.578Z,10.20
2019-06-07T08:58:54.981Z,8.37
2019-06-07T09:03:49.743Z,9.67
2019-06-07T09:08:51.934Z,11.30
2019-06-07T09:13:49.444Z,7.73
2019-06-07T09:18:45.618Z,9.13
2019-06-07T09:23:41.737Z,6.63
2019-06-07T09:28:37.672Z,14.93
2019-06-07T09:33:33.570Z,8.83
2019-06-07T09:38:29.766Z,8.20
2019-06-07T09:49:09.225Z,7.23
2019-06-07T09:53:23.315Z,9.37
2019-06-07T10:03:22.105Z,3.40
2019-06-07T10:09:15.082Z,4.90
2019-06-07T10:13:12.809Z,5.83
2019-06-07T10:18:09.274Z,5.50
2019-06-07T10:23:05.786Z,11.33
2019-06-07T10:28:01.922Z,3.30
2019-06-07T10:32:57.805Z,2.97
2019-06-07T10:37:53.755Z,4.33
2019-06-07T10:42:49.741Z,4.50
2019-06-07T10:47:45.728Z,5.83
2019-06-07T10:52:41.772Z,3.67
2019-06-07T10:57:37.693Z,4.53
2019-06-07T11:02:33.636Z,5.70
2019-06-07T11:07:29.535Z,6.40
2019-06-07T11:12:25.451Z,4.97
2019-06-07T11:17:21.496Z,3.10
2019-06-07T11:22:18.586Z,2.90
2019-06-07T11:27:16.353Z,3.30
2019-06-07T11:32:12.629Z,3.33
2019-06-07T11:37:09.469Z,8.93
2019-06-07T11:42:07.782Z,7.37
2019-06-07T11:47:04.017Z,3.10
2019-06-07T11:51:59.959Z,2.37
2019-06-07T11:56:55.886Z,3.63
2019-06-07T12:01:51.805Z,8.87
2019-06-07T12:06:47.823Z,4.37
2019-06-07T12:11:43.859Z,2.50
2019-06-07T12:16:40.832Z,2.70
2019-06-07T12:21:36.755Z,6.20
2019-06-07T12:26:34.250Z,2.93
2019-06-07T12:31:30.275Z,2.73
2019-06-07T12:36:26.205Z,2.30
2019-06-07T12:41:22.433Z,8.07
2019-06-07T12:46:23.101Z,2.60
2019-06-07T12:51:17.217Z,3.47
2019-06-07T12:56:13.549Z,4.20
2019-06-07T13:01:09.561Z,2.00
2019-06-07T13:06:05.481Z,2.23
2019-06-07T13:11:15.694Z,2.17
2019-06-07T13:15:59.232Z,2.10
2019-06-07T13:20:55.734Z,2.10
2019-06-07T13:25:51.778Z,1.70
2019-06-07T13:30:47.692Z,2.03
2019-06-07T13:35:43.817Z,2.40
2019-06-07T13:40:39.812Z,2.83
2019-06-07T13:45:35.737Z,5.80
2019-06-07T13:50:31.697Z,2.00
2019-06-07T13:55:28.023Z,2.10
2019-06-07T14:00:24.877Z,4.03
2019-06-07T14:05:21.050Z,2.03
2019-06-07T14:10:17.096Z,4.27
2019-06-07T14:15:13.117Z,2.30
2019-06-07T14:20:10.700Z,2.17
2019-06-07T14:25:07.874Z,3.07
2019-06-07T14:30:06.207Z,2.57
2019-06-07T14:35:03.895Z,2.80
2019-06-07T14:39:59.930Z,2.07
2019-06-07T14:44:55.856Z,5.20
2019-06-07T14:49:51.782Z,2.03
2019-06-07T14:54:47.711Z,5.80
2019-06-07T14:59:43.632Z,2.13
2019-06-07T15:04:41.898Z,2.17
2019-06-07T15:09:39.378Z,2.10
2019-06-07T15:14:37.521Z,2.60
2019-06-07T15:19:36.408Z,3.87
2019-06-07T15:24:38.932Z,2.70
2019-06-07T15:29:36.307Z,2.10
2019-06-07T15:34:34.326Z,2.20
2019-06-07T15:39:32.555Z,2.20
2019-06-07T15:44:29.375Z,1.87
2019-06-07T15:49:26.447Z,2.07
2019-06-07T15:54:23.149Z,2.60
2019-06-07T15:59:19.178Z,2.00
2019-06-07T16:04:15.203Z,2.97
2019-06-07T16:09:12.017Z,2.50
2019-06-07T16:14:08.013Z,4.83
2019-06-07T16:19:06.512Z,2.73
2019-06-07T16:24:02.762Z,3.07
2019-06-07T16:28:58.657Z,3.20
2019-06-07T16:33:54.580Z,2.60
2019-06-07T16:38:51.210Z,2.90
2019-06-07T16:43:47.171Z,3.47
2019-06-07T16:48:44.942Z,3.10
2019-06-07T16:53:42.353Z,3.10
2019-06-07T16:58:38.476Z,2.53
2019-06-07T17:03:34.404Z,2.37
2019-06-07T17:08:30.327Z,3.00
2019-06-07T17:13:33.428Z,2.93
2019-06-07T17:18:24.069Z,8.63
2019-06-07T17:23:19.993Z,2.50
2019-06-07T17:28:16.043Z,7.60
2019-06-07T17:33:12.040Z,2.83
2019-06-07T17:38:07.970Z,3.17
2019-06-07T17:43:03.891Z,2.87
2019-06-07T17:47:59.813Z,6.40
2019-06-07T17:53:02.833Z,3.47
2019-06-07T17:57:58.911Z,3.53
2019-06-07T18:02:54.832Z,4.07
2019-06-07T18:07:51.854Z,3.83
2019-06-07T18:12:48.151Z,3.90
2019-06-07T18:17:44.539Z,5.73
2019-06-07T18:22:41.193Z,5.67
2019-06-07T18:27:37.123Z,9.03
2019-06-07T18:32:33.048Z,8.30
2019-06-07T18:37:29.002Z,16.83
2019-06-07T18:42:24.933Z,12.00
2019-06-07T18:47:20.854Z,6.17
2019-06-07T18:52:18.719Z,10.77
2019-06-07T18:57:15.439Z,5.40
2019-06-07T19:02:11.577Z,4.30
2019-06-07T19:07:11.235Z,2.67
2019-06-07T19:12:07.989Z,3.80
2019-06-07T19:17:04.925Z,3.43
2019-06-07T19:22:02.929Z,4.33
2019-06-07T19:27:03.606Z,2.07
2019-06-07T19:32:01.655Z,2.93
2019-06-07T19:37:02.009Z,2.93
2019-06-07T19:42:02.515Z,1.50
2019-06-07T19:47:00.493Z,5.00
2019-06-07T19:51:59.119Z,6.03
2019-06-07T19:56:55.739Z,1.17
2019-06-07T20:01:53.601Z,1.17
2019-06-07T20:06:50.532Z,1.37
2019-06-07T20:11:46.563Z,4.13
2019-06-07T20:16:42.489Z,8.63
2019-06-07T20:21:38.415Z,2.80
2019-06-07T20:26:34.438Z,3.67
2019-06-07T20:31:31.145Z,3.33
2019-06-07T20:36:27.078Z,1.57
2019-06-07T20:41:23.000Z,1.60
2019-06-07T20:46:18.950Z,4.87
2019-06-07T20:51:15.017Z,2.40
2019-06-07T20:56:10.978Z,1.87
2019-06-07T21:01:07.023Z,1.97
2019-06-07T21:06:05.451Z,1.77
2019-06-07T21:11:01.620Z,1.87
2019-06-07T21:15:57.843Z,10.10
2019-06-07T21:20:53.927Z,1.67
2019-06-07T21:25:50.107Z,1.40
2019-06-07T21:30:46.221Z,2.20
2019-06-07T21:35:42.243Z,2.70
2019-06-07T21:40:38.170Z,2.97
2019-06-07T21:45:34.131Z,4.77
2019-06-07T21:50:30.260Z,4.83
2019-06-07T21:55:26.206Z,4.20
2019-06-07T22:00:42.930Z,5.80
2019-06-07T22:05:38.848Z,3.00
2019-06-07T22:10:34.801Z,4.50
2019-06-07T22:15:35.385Z,1.93
2019-06-07T22:20:28.669Z,5.40
2019-06-07T22:25:24.756Z,3.73
2019-06-07T22:30:20.832Z,4.57
2019-06-07T22:35:16.766Z,1.30
2019-06-07T22:40:12.964Z,1.83
2019-06-07T22:45:10.858Z,0.77
2019-06-07T22:50:08.753Z,1.57
2019-06-07T22:55:07.707Z,1.00
2019-06-07T23:00:10.431Z,5.10
2019-06-07T23:05:04.848Z,6.37
2019-06-07T23:10:01.584Z,2.93
2019-06-07T23:14:57.529Z,0.60
2019-06-07T23:19:53.458Z,2.10
2019-06-07T23:24:49.389Z,2.20
2019-06-07T23:29:45.311Z,2.20
2019-06-07T23:34:41.234Z,3.33
2019-06-07T23:39:37.663Z,0.73
2019-06-07T23:44:34.099Z,1.37
2019-06-07T23:49:30.120Z,3.17
2019-06-07T23:54:26.051Z,2.50
2019-06-07T23:59:22.390Z,0.77
